Terminal Aerodrome Forecast
Issued by NWS Cleveland, OH

Home | Current Version | Previous Version | Text Only | Print | Product List | Glossary On
Versions: 1 2 3 4 5 6 7 8 9 10 11 12 13
345
FTUS41 KCLE 210500
TAFTOL
TAF
KTOL 210539Z 2106/2206 34004KT P6SM OVC050
     FM211400 31006KT P6SM SCT060 OVC120
     FM212000 27010KT P6SM SCT120=

USA.gov is the U.S. government's official web portal to all federal, state and local government web resources and services.